Time;durP1;ratioP1;P1;durP2;ratioP2;P2;SDS_P1;SDS_P2;PMS_P1;PMS_P2;Temp;Humidity;BMP_temperature;BMP_pressure;BME280_temperature;BME280_humidity;BME280_pressure;Samples;Min_cycle;Max_cycle;Signal;HPM_P1;HPM_P2
2023/01/12 00:02:05;;;;;;;17.75;4.82;;;8.70;99.90;;;;;;4968119;28;20049;-74
2023/01/12 00:04:31;;;;;;;13.25;3.63;;;8.70;99.90;;;;;;4969143;28;20536;-75
2023/01/12 00:07:00;;;;;;;20.08;5.22;;;8.70;99.90;;;;;;4968552;28;20060;-76
2023/01/12 00:09:26;;;;;;;15.57;4.45;;;8.70;99.90;;;;;;4988695;28;20064;-70
2023/01/12 00:11:52;;;;;;;17.52;4.28;;;8.70;99.90;;;;;;4985748;28;20384;-70
2023/01/12 00:14:18;;;;;;;18.85;4.55;;;8.70;99.90;;;;;;4986599;28;20048;-70
2023/01/12 00:16:43;;;;;;;16.92;4.57;;;8.60;99.90;;;;;;4985825;28;20060;-70
2023/01/12 00:19:18;;;;;;;18.92;4.40;;;8.70;99.90;;;;;;4986649;28;20095;-71
2023/01/12 00:24:44;;;;;;;18.27;4.40;;;8.60;99.90;;;;;;4986648;28;20061;-71
2023/01/12 00:27:15;;;;;;;17.60;4.03;;;8.60;99.90;;;;;;4969699;28;20050;-71
2023/01/12 00:29:41;;;;;;;17.65;4.60;;;8.50;99.90;;;;;;4984881;28;20054;-76
2023/01/12 00:32:12;;;;;;;21.52;4.72;;;8.50;99.90;;;;;;4985041;28;20497;-74
2023/01/12 00:34:37;;;;;;;;;;;8.50;99.90;;;;;;4968750;28;20059;-76
2023/01/12 00:37:04;;;;;;;18.48;4.85;;;8.50;99.90;;;;;;4967378;28;19929;-74
2023/01/12 00:39:35;;;;;;;19.48;4.43;;;8.50;99.90;;;;;;4968386;28;20046;-74
2023/01/12 00:47:30;;;;;;;24.55;4.68;;;8.50;99.90;;;;;;4985489;28;20046;-75
2023/01/12 00:49:56;;;;;;;22.17;4.65;;;8.50;99.90;;;;;;4985256;28;20034;-74
2023/01/12 00:52:22;;;;;;;18.00;4.15;;;8.50;99.90;;;;;;4951741;28;20042;-75
2023/01/12 00:54:48;;;;;;;22.77;5.35;;;8.50;99.90;;;;;;4967725;28;20353;-75
2023/01/12 00:57:14;;;;;;;19.77;4.50;;;8.50;99.90;;;;;;4968125;28;20084;-76
2023/01/12 00:59:40;;;;;;;19.13;4.35;;;8.60;99.90;;;;;;4953663;28;20046;-76
2023/01/12 01:02:07;;;;;;;18.35;4.38;;;8.60;99.90;;;;;;4968342;28;20512;-75
2023/01/12 01:04:35;;;;;;;19.63;4.00;;;8.60;99.90;;;;;;4970918;28;20050;-76
2023/01/12 01:07:02;;;;;;;19.63;4.30;;;8.70;99.90;;;;;;4969088;28;20056;-70
2023/01/12 01:09:28;;;;;;;19.65;4.18;;;8.70;99.90;;;;;;4969369;28;20094;-70
2023/01/12 01:11:54;;;;;;;16.85;3.80;;;8.70;99.90;;;;;;4964476;28;20069;-70
2023/01/12 01:14:20;;;;;;;19.23;4.35;;;8.70;99.90;;;;;;4986724;28;20042;-70
2023/01/12 01:16:46;;;;;;;17.33;4.40;;;8.70;99.90;;;;;;4985656;28;20108;-70
2023/01/12 01:19:11;;;;;;;16.08;4.20;;;8.70;99.90;;;;;;4951071;28;20129;-71
2023/01/12 01:21:39;;;;;;;22.02;4.45;;;8.70;99.90;;;;;;4975323;28;20049;-70
2023/01/12 01:24:11;;;;;;;16.92;4.22;;;8.70;99.90;;;;;;4969541;28;20522;-70
2023/01/12 01:26:38;;;;;;;21.48;5.05;;;8.70;99.90;;;;;;4984852;28;20046;-76
2023/01/12 01:29:07;;;;;;;23.40;5.22;;;8.70;99.90;;;;;;4972086;28;20512;-74
2023/01/12 01:31:33;;;;;;;19.75;4.50;;;8.70;99.90;;;;;;4970314;28;20123;-75
2023/01/12 01:33:59;;;;;;;21.48;4.55;;;8.70;99.90;;;;;;4986045;28;20042;-76
2023/01/12 01:36:25;;;;;;;20.67;4.80;;;8.70;99.90;;;;;;4968896;28;20042;-74
2023/01/12 01:38:51;;;;;;;21.60;5.03;;;8.70;99.90;;;;;;4968598;28;20684;-74
2023/01/12 01:41:29;;;;;;;20.98;4.68;;;8.60;99.90;;;;;;4987751;28;20050;-77
2023/01/12 01:44:25;;;;;;;19.67;5.47;;;8.60;99.90;;;;;;4983704;28;20046;-73
2023/01/12 01:46:54;;;;;;;26.92;5.32;;;8.60;99.90;;;;;;4982621;28;20129;-75
2023/01/12 01:49:30;;;;;;;22.20;5.28;;;8.60;99.90;;;;;;4986044;28;20049;-70
2023/01/12 01:52:05;;;;;;;25.38;5.90;;;8.60;99.90;;;;;;4986223;28;20050;-71
2023/01/12 01:54:36;;;;;;;21.55;5.00;;;8.60;99.90;;;;;;4978176;28;20050;-70
2023/01/12 01:57:02;;;;;;;24.55;6.10;;;8.60;99.90;;;;;;4976416;28;20084;-71
2023/01/12 01:59:32;;;;;;;22.35;5.50;;;8.60;99.90;;;;;;4984999;28;20058;-71
2023/01/12 02:02:02;;;;;;;23.77;4.88;;;8.60;99.90;;;;;;4968127;28;20301;-70
2023/01/12 02:04:28;;;;;;;22.30;5.43;;;8.70;99.90;;;;;;4983597;28;20121;-71
2023/01/12 02:07:07;;;;;;;24.70;5.50;;;8.70;99.90;;;;;;4964503;28;20851;-71
2023/01/12 02:09:36;;;;;;;26.08;5.30;;;8.60;99.90;;;;;;4970803;28;20061;-72
2023/01/12 02:18:18;;;;;;;18.27;4.43;;;8.70;99.90;;;;;;4984812;28;20497;-72
2023/01/12 02:21:10;;;;;;;20.25;4.55;;;8.70;99.90;;;;;;4974363;28;20056;-72
2023/01/12 02:23:54;;;;;;;18.17;4.88;;;8.70;99.90;;;;;;4983007;28;20046;-71
2023/01/12 02:26:51;;;;;;;17.27;4.90;;;8.70;99.90;;;;;;4968815;28;20391;-72
2023/01/12 02:29:20;;;;;;;21.05;5.57;;;8.70;99.90;;;;;;4983271;28;20054;-71
2023/01/12 02:31:45;;;;;;;22.65;5.70;;;8.70;99.90;;;;;;4983233;28;20121;-71
2023/01/12 02:34:11;;;;;;;21.52;6.32;;;8.70;99.90;;;;;;4966284;28;20506;-72
2023/01/12 02:37:00;;;;;;;22.75;5.78;;;8.70;99.90;;;;;;4968037;28;20050;-72
2023/01/12 02:39:29;;;;;;;23.90;6.18;;;8.70;99.90;;;;;;4985487;28;20057;-71
2023/01/12 02:44:57;;;;;;;27.33;6.68;;;8.70;99.90;;;;;;4979340;28;20711;-72
2023/01/12 02:47:48;;;;;;;26.40;6.50;;;8.60;99.90;;;;;;4968699;28;20042;-74
2023/01/12 02:50:20;;;;;;;26.00;6.30;;;8.70;99.90;;;;;;4971168;28;20056;-74
2023/01/12 02:52:51;;;;;;;22.90;5.80;;;8.70;99.90;;;;;;4970011;28;20043;-71
2023/01/12 02:55:18;;;;;;;23.45;6.50;;;8.70;99.90;;;;;;4962753;28;20062;-72
2023/01/12 02:57:45;;;;;;;26.17;5.80;;;8.70;99.90;;;;;;4964010;28;21376;-71
2023/01/12 03:00:15;;;;;;;26.58;5.90;;;8.70;99.90;;;;;;4979202;28;20536;-71
2023/01/12 03:02:41;;;;;;;31.23;6.45;;;8.80;99.90;;;;;;4978026;28;20486;-71
2023/01/12 03:05:08;;;;;;;21.63;5.13;;;8.80;99.90;;;;;;4962274;28;20042;-72
2023/01/12 03:07:39;;;;;;;25.90;6.88;;;8.70;99.90;;;;;;4985919;28;20046;-73
2023/01/12 03:10:28;;;;;;;25.83;6.25;;;8.80;99.90;;;;;;4965794;28;20046;-73
2023/01/12 03:12:55;;;;;;;24.77;6.35;;;8.80;99.90;;;;;;4923671;28;20050;-72
2023/01/12 03:15:23;;;;;;;29.83;7.05;;;8.80;99.90;;;;;;4986998;28;20058;-73
2023/01/12 03:18:02;;;;;;;25.70;6.35;;;8.80;99.90;;;;;;4950964;28;20066;-73
2023/01/12 03:20:44;;;;;;;23.88;6.13;;;8.80;99.90;;;;;;4979347;28;20076;-72
2023/01/12 03:23:15;;;;;;;22.27;6.15;;;8.80;99.90;;;;;;4984575;28;20069;-72
2023/01/12 03:25:43;;;;;;;25.77;6.28;;;8.80;99.90;;;;;;4969740;28;20409;-72
2023/01/12 03:28:11;;;;;;;20.15;5.50;;;8.80;99.90;;;;;;4969765;28;20054;-72
2023/01/12 03:30:42;;;;;;;24.83;6.55;;;8.90;99.90;;;;;;4969251;28;20129;-72
2023/01/12 03:33:09;;;;;;;21.40;6.15;;;8.90;99.90;;;;;;4984504;28;20049;-73
2023/01/12 03:35:50;;;;;;;21.90;5.55;;;8.90;99.90;;;;;;4985423;28;20050;-72
2023/01/12 03:38:26;;;;;;;20.25;5.90;;;8.90;99.90;;;;;;4964216;28;20054;-72
2023/01/12 03:41:03;;;;;;;20.75;6.32;;;8.90;99.90;;;;;;4995874;28;20051;-72
2023/01/12 03:43:40;;;;;;;21.40;6.00;;;8.90;99.90;;;;;;5001754;28;20046;-74
2023/01/12 03:46:21;;;;;;;19.23;5.13;;;8.90;99.90;;;;;;4985316;28;20034;-74
2023/01/12 03:48:56;;;;;;;18.92;5.10;;;8.90;99.90;;;;;;4984957;28;20061;-74
2023/01/12 03:51:36;;;;;;;16.40;4.43;;;8.90;99.90;;;;;;4968778;28;20463;-74
2023/01/12 03:54:04;;;;;;;16.60;4.13;;;8.90;99.90;;;;;;4976094;28;20085;-74
2023/01/12 03:56:35;;;;;;;12.35;3.55;;;8.90;99.90;;;;;;4982858;28;20388;-72
2023/01/12 03:59:03;;;;;;;12.95;4.05;;;8.90;99.90;;;;;;4985565;28;20042;-74
2023/01/12 04:01:29;;;;;;;17.67;4.50;;;8.90;99.90;;;;;;4985227;28;20398;-72
2023/01/12 04:03:54;;;;;;;14.77;4.45;;;8.90;99.90;;;;;;4984423;28;20428;-74
2023/01/12 04:06:21;;;;;;;16.23;4.50;;;8.90;99.90;;;;;;4976626;28;20045;-72
2023/01/12 04:08:47;;;;;;;11.68;4.38;;;8.80;99.90;;;;;;4983298;28;20557;-73
2023/01/12 04:13:59;;;;;;;14.68;3.83;;;8.90;99.90;;;;;;4964284;28;20338;-75
2023/01/12 04:16:24;;;;;;;12.85;3.58;;;8.90;99.90;;;;;;4952425;28;20042;-72
2023/01/12 04:18:50;;;;;;;11.30;4.30;;;8.90;99.90;;;;;;4967547;28;20073;-72
2023/01/12 04:24:00;;;;;;;11.85;4.03;;;8.90;99.90;;;;;;4984939;28;20046;-71
2023/01/12 04:26:26;;;;;;;13.05;3.97;;;8.90;99.90;;;;;;4952537;28;20073;-71
2023/01/12 04:28:52;;;;;;;10.63;3.10;;;8.90;99.90;;;;;;4951538;28;20105;-73
2023/01/12 04:31:18;;;;;;;12.43;3.13;;;8.90;99.90;;;;;;4984267;28;20046;-71
2023/01/12 04:33:43;;;;;;;9.52;2.95;;;9.00;99.90;;;;;;4958691;28;20046;-71
2023/01/12 04:36:10;;;;;;;9.38;3.08;;;9.00;99.90;;;;;;4954814;28;20077;-71
2023/01/12 04:38:39;;;;;;;9.65;2.70;;;9.00;99.90;;;;;;4970158;28;20136;-72
2023/01/12 04:41:06;;;;;;;9.10;2.70;;;9.00;99.90;;;;;;4949592;28;20042;-71
2023/01/12 04:43:33;;;;;;;10.90;3.03;;;9.00;99.90;;;;;;4973255;28;20054;-72
2023/01/12 04:46:04;;;;;;;8.15;2.42;;;8.90;99.90;;;;;;4972865;28;20081;-72
2023/01/12 04:48:32;;;;;;;8.57;2.80;;;8.90;99.90;;;;;;4973331;28;20220;-72
2023/01/12 04:50:59;;;;;;;11.45;3.78;;;8.90;99.90;;;;;;4971994;28;20078;-73
2023/01/12 04:53:25;;;;;;;11.52;3.42;;;8.90;99.90;;;;;;4988107;28;20042;-74
2023/01/12 04:55:51;;;;;;;7.75;3.60;;;8.90;99.90;;;;;;4988939;28;20442;-75
2023/01/12 04:58:17;;;;;;;11.50;4.00;;;8.90;99.90;;;;;;4970513;28;20121;-75
2023/01/12 05:00:43;;;;;;;11.73;4.07;;;8.80;99.90;;;;;;4969981;28;20046;-73
2023/01/12 05:03:11;;;;;;;8.25;3.35;;;8.80;99.90;;;;;;4959698;28;20490;-73
2023/01/12 05:05:37;;;;;;;9.70;3.70;;;8.90;99.90;;;;;;4970497;28;20122;-74
2023/01/12 05:10:54;;;;;;;8.43;3.38;;;8.80;99.90;;;;;;4985675;28;20042;-75
2023/01/12 05:13:21;;;;;;;8.23;2.63;;;8.80;99.90;;;;;;4970664;28;20046;-75
2023/01/12 05:15:47;;;;;;;8.00;3.35;;;8.80;99.90;;;;;;4986388;28;20034;-77
2023/01/12 05:18:13;;;;;;;6.50;2.60;;;8.80;99.90;;;;;;4955803;28;20801;-76
2023/01/12 05:20:38;;;;;;;9.00;2.50;;;8.80;99.90;;;;;;4969615;28;20096;-74
2023/01/12 05:23:05;;;;;;;7.47;2.63;;;8.70;99.90;;;;;;4953864;28;20108;-73
2023/01/12 05:25:31;;;;;;;6.95;2.30;;;8.70;99.90;;;;;;4968763;28;20423;-74
2023/01/12 05:27:58;;;;;;;6.72;2.30;;;8.70;99.90;;;;;;4956884;28;20047;-74
2023/01/12 05:30:25;;;;;;;7.50;2.70;;;8.70;99.90;;;;;;4972830;28;20046;-78
2023/01/12 05:32:51;;;;;;;4.63;1.85;;;8.70;99.90;;;;;;4987564;28;20129;-75
2023/01/12 05:35:17;;;;;;;6.68;2.05;;;8.70;99.90;;;;;;4970989;28;20497;-77
2023/01/12 05:37:44;;;;;;;5.63;2.33;;;8.70;99.90;;;;;;4987674;28;20143;-73
2023/01/12 05:40:10;;;;;;;5.28;2.03;;;8.60;99.90;;;;;;4985362;28;20038;-74
2023/01/12 05:45:21;;;;;;;9.88;3.15;;;8.60;99.90;;;;;;4983446;28;20058;-74
2023/01/12 05:47:46;;;;;;;7.00;2.13;;;8.60;99.90;;;;;;4985362;28;20113;-73
2023/01/12 05:50:12;;;;;;;6.88;2.05;;;8.60;99.90;;;;;;4969517;28;20046;-74
2023/01/12 05:52:38;;;;;;;6.90;2.28;;;8.60;99.90;;;;;;4967059;28;20049;-75
2023/01/12 05:55:04;;;;;;;7.35;2.22;;;8.60;99.90;;;;;;4951056;28;20046;-74
2023/01/12 05:57:30;;;;;;;7.07;2.08;;;8.60;99.90;;;;;;4985477;28;20252;-75
2023/01/12 05:59:59;;;;;;;7.25;2.47;;;8.70;99.90;;;;;;4953549;28;20105;-72
2023/01/12 06:02:25;;;;;;;5.72;2.13;;;8.70;99.90;;;;;;4985383;28;20505;-78
2023/01/12 06:04:51;;;;;;;7.90;2.42;;;8.70;99.90;;;;;;4967898;28;20136;-75
2023/01/12 06:07:17;;;;;;;5.53;2.20;;;8.80;99.90;;;;;;4951628;28;20521;-74
2023/01/12 06:09:43;;;;;;;7.05;2.40;;;8.80;99.90;;;;;;4970835;28;20054;-74
2023/01/12 06:14:55;;;;;;;8.73;2.28;;;8.80;99.90;;;;;;4982899;28;20045;-75
2023/01/12 06:17:20;;;;;;;6.55;2.30;;;8.80;99.90;;;;;;4985134;28;20049;-75
2023/01/12 06:19:46;;;;;;;8.00;2.42;;;8.80;99.90;;;;;;4968354;28;20472;-78
2023/01/12 06:22:12;;;;;;;6.13;2.25;;;8.70;99.90;;;;;;4968838;28;20053;-77
2023/01/12 06:24:38;;;;;;;6.50;2.00;;;8.80;99.90;;;;;;4968564;28;20072;-72
2023/01/12 06:27:03;;;;;;;4.63;2.00;;;8.80;99.90;;;;;;4968849;28;20137;-75
2023/01/12 06:29:29;;;;;;;5.38;1.90;;;8.80;99.90;;;;;;4967357;28;21444;-72
2023/01/12 06:31:55;;;;;;;4.03;1.60;;;8.90;99.90;;;;;;4987508;28;20042;-72
2023/01/12 06:34:21;;;;;;;6.10;2.40;;;8.90;99.90;;;;;;4970560;28;20050;-71
2023/01/12 06:36:48;;;;;;;5.00;1.85;;;9.00;99.90;;;;;;4970319;28;20171;-72
2023/01/12 06:39:14;;;;;;;4.85;1.80;;;9.00;99.90;;;;;;4969221;28;20042;-71
2023/01/12 06:44:24;;;;;;;5.80;2.15;;;9.00;99.90;;;;;;4983981;28;20571;-79
2023/01/12 06:46:49;;;;;;;5.03;2.20;;;9.00;99.90;;;;;;4988711;28;20048;-75
2023/01/12 06:49:15;;;;;;;3.55;1.80;;;9.10;99.90;;;;;;4969820;28;20133;-80
2023/01/12 06:51:42;;;;;;;5.30;1.92;;;9.10;99.90;;;;;;4953161;28;20100;-74
2023/01/12 06:54:08;;;;;;;4.80;2.22;;;9.20;99.90;;;;;;4954202;28;20153;-74
2023/01/12 06:56:34;;;;;;;3.78;2.45;;;9.20;99.90;;;;;;4953739;28;20129;-77
2023/01/12 06:59:02;;;;;;;3.78;2.05;;;9.20;99.90;;;;;;4973895;28;20050;-77
2023/01/12 07:01:28;;;;;;;4.10;2.22;;;9.20;99.90;;;;;;4970205;28;21481;-73
2023/01/12 07:03:54;;;;;;;4.03;2.28;;;9.30;99.90;;;;;;4988895;28;20952;-73
2023/01/12 07:06:19;;;;;;;4.05;2.22;;;9.30;99.90;;;;;;4987730;28;20505;-74
2023/01/12 07:08:45;;;;;;;5.05;2.55;;;9.30;99.90;;;;;;4970128;28;21248;-76
2023/01/12 07:11:13;;;;;;;3.95;2.63;;;9.30;99.90;;;;;;4970869;28;20437;-76
2023/01/12 07:13:39;;;;;;;4.82;2.30;;;9.30;99.90;;;;;;4984040;28;20038;-75
2023/01/12 07:16:05;;;;;;;4.47;2.95;;;9.30;99.90;;;;;;4954648;28;20046;-78
2023/01/12 07:18:31;;;;;;;4.70;2.75;;;9.30;99.90;;;;;;4987280;28;20359;-76
2023/01/12 07:20:57;;;;;;;3.10;2.25;;;9.40;99.90;;;;;;5002389;28;20177;-76
2023/01/12 07:23:23;;;;;;;3.53;2.50;;;9.30;99.90;;;;;;4970658;28;20423;-78
2023/01/12 07:25:49;;;;;;;4.80;2.50;;;9.30;99.90;;;;;;4986078;28;20038;-75
2023/01/12 07:28:15;;;;;;;5.28;3.00;;;9.30;99.90;;;;;;4972000;28;20416;-75
2023/01/12 07:30:41;;;;;;;5.75;4.45;;;9.40;99.90;;;;;;4970916;28;20037;-76
2023/01/12 07:33:11;;;;;;;5.70;4.18;;;9.40;99.90;;;;;;4953089;28;20554;-75
2023/01/12 07:35:38;;;;;;;7.85;5.30;;;9.40;99.90;;;;;;4971709;28;20053;-75
2023/01/12 07:38:07;;;;;;;6.25;4.95;;;9.40;99.90;;;;;;4987147;28;20050;-77
2023/01/12 07:40:33;;;;;;;7.40;4.68;;;9.40;99.90;;;;;;4970338;28;20497;-75
2023/01/12 07:43:05;;;;;;;7.30;4.80;;;9.40;99.90;;;;;;4987866;28;20080;-76
2023/01/12 07:45:30;;;;;;;8.85;6.05;;;9.40;99.90;;;;;;4969873;28;20104;-74
2023/01/12 07:47:57;;;;;;;8.68;6.30;;;9.50;99.90;;;;;;4985967;28;20051;-74
2023/01/12 07:50:24;;;;;;;8.23;6.28;;;9.50;99.90;;;;;;4986791;28;20049;-76
2023/01/12 07:52:51;;;;;;;9.75;5.40;;;9.50;99.90;;;;;;4971694;28;20760;-76
2023/01/12 07:55:18;;;;;;;7.55;5.18;;;9.50;99.90;;;;;;4953737;28;20038;-76
2023/01/12 07:58:07;;;;;;;8.70;5.55;;;9.50;99.90;;;;;;4987412;28;20137;-76
2023/01/12 08:00:33;;;;;;;7.90;4.53;;;9.50;99.90;;;;;;4954447;28;20722;-75
2023/01/12 08:03:10;;;;;;;11.93;4.65;;;9.50;99.90;;;;;;4986599;28;20033;-75
2023/01/12 08:05:37;;;;;;;9.35;4.63;;;9.60;99.90;;;;;;4969871;28;20041;-77
2023/01/12 08:08:04;;;;;;;13.40;4.65;;;9.60;99.90;;;;;;4986861;28;20053;-75
2023/01/12 08:10:30;;;;;;;14.20;5.90;;;9.70;99.90;;;;;;4971423;28;20543;-75
2023/01/12 08:12:56;;;;;;;18.33;5.35;;;9.70;99.90;;;;;;4972248;28;20061;-76
2023/01/12 08:15:24;;;;;;;15.18;5.32;;;9.80;99.90;;;;;;4983361;28;20037;-75
2023/01/12 08:18:00;;;;;;;17.98;5.07;;;9.80;99.90;;;;;;4953197;28;20038;-78
2023/01/12 08:20:31;;;;;;;19.17;5.50;;;9.90;99.90;;;;;;4984093;28;20049;-78
2023/01/12 08:23:03;;;;;;;21.77;4.70;;;10.00;99.90;;;;;;4985748;28;20049;-79
2023/01/12 08:25:43;;;;;;;24.83;5.82;;;10.10;99.90;;;;;;4986824;28;20053;-74
2023/01/12 08:28:16;;;;;;;28.88;5.30;;;10.20;99.90;;;;;;4970879;28;20045;-75
2023/01/12 08:30:45;;;;;;;26.10;5.55;;;10.20;99.90;;;;;;4969281;28;20386;-75
2023/01/12 08:33:11;;;;;;;31.13;6.53;;;10.30;99.90;;;;;;4968942;28;20057;-77
2023/01/12 08:35:38;;;;;;;26.00;5.88;;;10.40;99.90;;;;;;4967768;28;20552;-79
2023/01/12 08:38:03;;;;;;;32.63;5.95;;;10.40;99.90;;;;;;4971986;28;20576;-78
2023/01/12 08:41:31;;;;;;;29.90;6.20;;;10.50;99.90;;;;;;4969688;28;20821;-77
2023/01/12 08:44:00;;;;;;;29.75;6.45;;;10.50;99.90;;;;;;4972139;28;20061;-76
2023/01/12 08:46:06;;;;;;;30.52;5.88;;;10.60;99.90;;;;;;4971971;28;20046;-77
2023/01/12 08:48:38;;;;;;;27.35;6.13;;;10.60;99.90;;;;;;4971104;28;20089;-78
2023/01/12 08:51:08;;;;;;;26.90;6.07;;;10.60;99.90;;;;;;4969958;28;20050;-75
2023/01/12 08:53:37;;;;;;;30.70;6.35;;;10.60;99.90;;;;;;4967455;28;20501;-76
2023/01/12 08:56:03;;;;;;;34.95;6.75;;;10.70;99.90;;;;;;4955429;28;20042;-80
2023/01/12 08:58:30;;;;;;;28.55;6.05;;;10.60;99.90;;;;;;4954586;28;20048;-82
2023/01/12 09:00:55;;;;;;;29.85;6.13;;;10.60;99.90;;;;;;4969958;28;20100;-76
2023/01/12 09:03:21;;;;;;;30.10;6.00;;;10.70;99.90;;;;;;4969461;28;20135;-79
2023/01/12 09:05:47;;;;;;;22.33;5.65;;;10.70;99.90;;;;;;4970766;28;20216;-76
2023/01/12 09:08:13;;;;;;;27.80;6.45;;;10.70;99.90;;;;;;4970729;28;20054;-79
2023/01/12 09:10:39;;;;;;;29.75;5.18;;;10.70;99.90;;;;;;4967638;28;20054;-76
2023/01/12 09:13:10;;;;;;;25.08;4.82;;;10.70;99.90;;;;;;4967719;28;20137;-77
2023/01/12 09:15:36;;;;;;;28.17;6.03;;;10.70;99.90;;;;;;4967279;28;20068;-77
2023/01/12 09:18:02;;;;;;;21.30;5.25;;;10.70;99.90;;;;;;4982320;28;20065;-78
2023/01/12 09:20:27;;;;;;;25.52;5.72;;;10.80;99.90;;;;;;4980007;28;20050;-77
2023/01/12 09:22:53;;;;;;;30.98;5.15;;;10.80;99.90;;;;;;4950617;28;20043;-77
2023/01/12 09:25:19;;;;;;;23.40;5.18;;;10.80;99.90;;;;;;4982464;28;20046;-74
2023/01/12 09:27:45;;;;;;;26.23;5.45;;;10.90;99.90;;;;;;4981623;28;20552;-75
2023/01/12 09:30:11;;;;;;;19.45;4.57;;;10.90;99.90;;;;;;4984932;28;20038;-75
2023/01/12 09:32:36;;;;;;;21.05;4.43;;;10.90;99.90;;;;;;4969968;28;20493;-79
2023/01/12 09:35:02;;;;;;;22.30;5.22;;;10.90;99.90;;;;;;4953334;28;20047;-75
2023/01/12 09:37:28;;;;;;;19.42;4.53;;;11.00;99.90;;;;;;4969680;28;20384;-75
2023/01/12 09:39:54;;;;;;;26.15;4.93;;;11.00;99.90;;;;;;4970161;28;20456;-78
2023/01/12 09:48:10;;;;;;;26.00;4.88;;;11.00;99.90;;;;;;4983540;28;20835;-77
2023/01/12 09:50:43;;;;;;;20.40;4.50;;;11.00;99.90;;;;;;4986506;28;20046;-76
2023/01/12 09:53:34;;;;;;;22.77;4.28;;;11.00;99.90;;;;;;4985632;28;20130;-75
2023/01/12 09:56:20;;;;;;;22.38;4.90;;;11.00;99.90;;;;;;4970214;28;20437;-79
2023/01/12 09:59:20;;;;;;;24.85;4.68;;;11.10;99.90;;;;;;4984997;28;20045;-75
2023/01/12 10:01:47;;;;;;;18.33;4.40;;;11.10;99.90;;;;;;4971548;28;20073;-75
2023/01/12 10:04:13;;;;;;;25.30;4.95;;;11.10;99.90;;;;;;4953822;28;20452;-74
2023/01/12 10:06:40;;;;;;;20.05;4.50;;;11.10;99.90;;;;;;4969941;28;20046;-75
2023/01/12 10:09:11;;;;;;;20.77;4.78;;;11.10;99.90;;;;;;4985129;28;20125;-76
2023/01/12 10:11:45;;;;;;;22.20;4.50;;;11.10;99.90;;;;;;4970034;28;20093;-74
2023/01/12 10:14:30;;;;;;;20.88;4.78;;;11.10;99.90;;;;;;4985058;28;20042;-75
2023/01/12 10:17:13;;;;;;;21.30;4.15;;;11.20;99.90;;;;;;4981911;28;20049;-78
2023/01/12 10:20:01;;;;;;;22.48;4.65;;;11.20;99.90;;;;;;4968007;28;20050;-74
2023/01/12 10:22:36;;;;;;;22.95;5.75;;;11.20;99.90;;;;;;4967332;28;20434;-76
2023/01/12 10:25:13;;;;;;;20.70;4.13;;;11.30;99.90;;;;;;4968715;28;21776;-74
2023/01/12 10:27:42;;;;;;;21.65;5.18;;;11.30;99.90;;;;;;4969889;28;20034;-75
2023/01/12 10:30:15;;;;;;;20.13;4.97;;;11.30;99.90;;;;;;4985301;28;20069;-75
2023/01/12 10:32:41;;;;;;;21.40;5.00;;;11.40;99.90;;;;;;4969478;28;20501;-74
2023/01/12 10:35:16;;;;;;;22.90;4.38;;;11.40;99.90;;;;;;4969470;28;20077;-74
2023/01/12 10:37:53;;;;;;;22.45;5.43;;;11.50;99.90;;;;;;4971067;28;20125;-74
2023/01/12 10:40:29;;;;;;;18.33;3.78;;;11.50;99.90;;;;;;4982298;28;20615;-78
2023/01/12 10:43:30;;;;;;;18.25;4.00;;;11.60;99.90;;;;;;4967551;28;20376;-81
2023/01/12 10:46:11;;;;;;;19.23;3.97;;;11.70;99.90;;;;;;4986568;28;20169;-77
2023/01/12 10:48:41;;;;;;;16.52;4.25;;;11.70;99.90;;;;;;4966705;28;20497;-77
2023/01/12 10:51:25;;;;;;;17.77;3.45;;;11.70;99.90;;;;;;4981878;28;20493;-77
2023/01/12 10:54:16;;;;;;;18.08;3.83;;;11.70;99.90;;;;;;4983814;28;20058;-77
2023/01/12 10:57:11;;;;;;;17.15;3.97;;;11.70;99.90;;;;;;4969214;28;20081;-78
2023/01/12 10:59:39;;;;;;;14.15;3.25;;;11.70;99.90;;;;;;4971404;28;20170;-76
2023/01/12 11:02:07;;;;;;;14.38;3.15;;;11.60;99.90;;;;;;4981216;28;20057;-78
2023/01/12 11:04:42;;;;;;;15.88;3.60;;;11.60;99.90;;;;;;4984522;28;20082;-78
2023/01/12 11:07:21;;;;;;;23.20;4.38;;;11.60;99.90;;;;;;4983087;28;20292;-75
2023/01/12 11:09:48;;;;;;;22.63;5.43;;;11.60;99.90;;;;;;4967705;28;20062;-74
2023/01/12 11:12:32;;;;;;;21.77;4.57;;;11.50;99.90;;;;;;4963756;28;20457;-77
2023/01/12 11:15:13;;;;;;;23.48;4.95;;;11.50;99.90;;;;;;4984638;28;20054;-75
2023/01/12 11:17:47;;;;;;;17.70;4.00;;;11.60;99.90;;;;;;4966516;28;20189;-80
2023/01/12 11:20:36;;;;;;;22.55;5.18;;;11.60;99.90;;;;;;4983068;28;20616;-79
2023/01/12 11:23:08;;;;;;;22.83;4.70;;;11.60;99.90;;;;;;4984567;28;20042;-79
2023/01/12 11:25:43;;;;;;;23.33;5.05;;;11.60;99.90;;;;;;4966961;28;20058;-81
2023/01/12 11:28:32;;;;;;;19.95;4.78;;;11.60;99.90;;;;;;4969195;28;20097;-78
2023/01/12 11:31:11;;;;;;;21.35;5.22;;;11.60;99.90;;;;;;4980886;28;20528;-82
2023/01/12 11:33:42;;;;;;;20.97;5.23;;;11.70;99.90;;;;;;4984620;28;20054;-79
2023/01/12 11:36:22;;;;;;;22.92;4.90;;;11.60;99.90;;;;;;4964890;28;20297;-78
2023/01/12 11:39:27;;;;;;;20.20;4.57;;;11.70;99.90;;;;;;4986543;28;20042;-78
2023/01/12 11:44:50;;;;;;;17.88;4.65;;;11.60;99.90;;;;;;4936433;29;20043;-78
2023/01/12 11:47:22;;;;;;;19.15;4.05;;;11.70;99.90;;;;;;4962720;28;20057;-79
2023/01/12 11:50:01;;;;;;;21.48;4.75;;;11.70;99.90;;;;;;4984915;28;20046;-78
2023/01/12 11:52:27;;;;;;;18.83;4.43;;;11.70;99.90;;;;;;4982580;28;20050;-79
2023/01/12 11:54:54;;;;;;;19.27;4.45;;;11.70;99.90;;;;;;4982830;28;20393;-78
2023/01/12 11:57:42;;;;;;;19.35;4.45;;;11.70;99.90;;;;;;4951391;28;20264;-79
2023/01/12 12:00:27;;;;;;;16.73;4.18;;;11.80;99.90;;;;;;4981121;28;20077;-78
2023/01/12 12:03:15;;;;;;;18.55;4.00;;;11.70;99.90;;;;;;4968175;28;20058;-79
2023/01/12 12:06:06;;;;;;;21.75;5.05;;;11.80;99.90;;;;;;4981196;28;20061;-79
2023/01/12 12:08:38;;;;;;;;;;;11.80;99.90;;;;;;4982005;28;20065;-76
2023/01/12 12:11:31;;;;;;;17.83;4.32;;;11.70;99.90;;;;;;4967271;28;19921;-75
2023/01/12 12:14:27;;;;;;;18.33;4.13;;;11.70;99.90;;;;;;4967168;28;20659;-73
2023/01/12 12:17:12;;;;;;;21.98;5.35;;;11.70;99.90;;;;;;4968974;28;20185;-77
2023/01/12 12:19:50;;;;;;;18.80;5.05;;;11.70;99.90;;;;;;4966589;28;20057;-76
2023/01/12 12:22:18;;;;;;;17.55;4.10;;;11.70;99.90;;;;;;4965252;28;20046;-78
2023/01/12 12:25:16;;;;;;;19.88;4.18;;;11.70;99.90;;;;;;4983011;28;20084;-77
2023/01/12 12:27:58;;;;;;;16.45;3.72;;;11.70;99.90;;;;;;4966365;28;20048;-77
2023/01/12 12:30:44;;;;;;;18.00;4.43;;;11.60;99.90;;;;;;4965721;28;20042;-79
2023/01/12 12:33:29;;;;;;;15.70;3.83;;;11.70;99.90;;;;;;4982846;28;20044;-76
2023/01/12 12:36:15;;;;;;;18.17;3.88;;;11.60;99.90;;;;;;4968609;28;20348;-76
2023/01/12 12:39:14;;;;;;;18.17;4.25;;;11.60;99.90;;;;;;4965792;28;20092;-76
2023/01/12 12:45:15;;;;;;;21.65;4.95;;;11.60;99.90;;;;;;4979614;28;20125;-77
2023/01/12 12:48:00;;;;;;;17.25;4.15;;;11.60;99.90;;;;;;4966191;28;20508;-77
2023/01/12 12:50:31;;;;;;;23.73;5.20;;;11.50;99.90;;;;;;4982352;28;20505;-76
2023/01/12 12:53:12;;;;;;;22.13;5.00;;;11.40;99.90;;;;;;4966367;28;20046;-76
2023/01/12 12:55:39;;;;;;;25.33;5.60;;;11.40;99.90;;;;;;4965469;28;20061;-76
2023/01/12 12:58:27;;;;;;;24.80;5.38;;;11.30;99.90;;;;;;4951308;28;20069;-76
2023/01/12 13:00:55;;;;;;;26.83;5.82;;;11.30;99.90;;;;;;4979618;28;20049;-76
2023/01/12 13:03:57;;;;;;;27.33;6.40;;;11.30;99.90;;;;;;4981839;28;20113;-76
2023/01/12 13:06:25;;;;;;;27.40;5.80;;;11.30;99.90;;;;;;4925683;28;20781;-77
2023/01/12 13:09:17;;;;;;;22.90;4.72;;;11.30;99.90;;;;;;4959634;28;20513;-77
2023/01/12 13:11:59;;;;;;;24.60;5.47;;;11.30;99.90;;;;;;4946232;28;20061;-77
2023/01/12 13:14:37;;;;;;;20.10;4.72;;;11.30;99.90;;;;;;4969453;28;20560;-74
2023/01/12 13:17:18;;;;;;;23.05;5.93;;;11.40;99.90;;;;;;4968135;28;20057;-74
2023/01/12 13:20:00;;;;;;;25.38;5.32;;;11.40;99.90;;;;;;4984719;28;20050;-74
2023/01/12 13:22:34;;;;;;;20.63;5.38;;;11.40;99.90;;;;;;4987409;28;20038;-74
2023/01/12 13:25:08;;;;;;;22.70;5.80;;;11.50;99.90;;;;;;4971836;28;20043;-74
2023/01/12 13:27:49;;;;;;;21.95;4.78;;;11.50;99.90;;;;;;4987296;28;20081;-74
2023/01/12 13:30:27;;;;;;;26.13;5.53;;;11.50;99.90;;;;;;4971224;28;20057;-74
2023/01/12 13:33:28;;;;;;;20.45;5.13;;;11.50;99.90;;;;;;4973104;28;20525;-74
2023/01/12 13:36:07;;;;;;;;;;;11.60;99.90;;;;;;4988474;28;20038;-75
2023/01/12 13:38:37;;;;;;;20.17;4.63;;;11.50;99.90;;;;;;4985431;28;19933;-74
2023/01/12 13:44:33;;;;;;;21.65;5.22;;;11.50;99.90;;;;;;4930525;29;20047;-74
2023/01/12 13:47:18;;;;;;;20.27;4.85;;;11.50;99.90;;;;;;4958246;28;20089;-74
2023/01/12 13:49:47;;;;;;;16.13;4.68;;;11.50;99.90;;;;;;4969177;28;20054;-74
2023/01/12 13:52:34;;;;;;;19.02;4.65;;;11.50;99.90;;;;;;4985990;28;20042;-74
2023/01/12 13:55:01;;;;;;;18.05;4.60;;;11.50;99.90;;;;;;4967263;28;20047;-75
2023/01/12 13:57:29;;;;;;;21.20;5.13;;;11.50;99.90;;;;;;4969358;28;20408;-74
2023/01/12 14:00:03;;;;;;;17.90;5.03;;;11.50;99.90;;;;;;4983186;28;20497;-74